createdAt,value
2022-12-29T00:04:15.277Z,5.00
2022-12-29T00:14:36.769Z,5.00
2022-12-29T00:25:01.943Z,5.70
2022-12-29T00:35:13.009Z,4.50
2022-12-29T00:45:18.880Z,4.50
2022-12-29T00:55:26.120Z,4.80
2022-12-29T01:05:33.106Z,5.60
2022-12-29T01:15:40.383Z,6.20
2022-12-29T01:25:47.429Z,3.90
2022-12-29T01:35:54.648Z,4.40
2022-12-29T01:46:01.907Z,5.30
2022-12-29T01:56:13.139Z,5.60
2022-12-29T02:06:20.732Z,4.80
2022-12-29T02:16:33.298Z,5.20
2022-12-29T02:26:57.003Z,3.00
2022-12-29T02:37:02.599Z,3.40
2022-12-29T02:47:13.625Z,5.40
2022-12-29T02:57:32.700Z,5.00
2022-12-29T03:07:40.532Z,5.20
2022-12-29T03:17:47.987Z,4.50
2022-12-29T03:27:58.190Z,3.70
2022-12-29T03:38:12.429Z,4.50
2022-12-29T03:48:19.483Z,5.50
2022-12-29T03:58:27.483Z,5.20
2022-12-29T04:08:34.488Z,4.10
2022-12-29T04:18:41.568Z,4.20
2022-12-29T04:28:48.614Z,4.70
2022-12-29T04:38:55.847Z,5.00
2022-12-29T04:49:09.108Z,4.40
2022-12-29T04:59:16.554Z,4.00
2022-12-29T05:09:25.112Z,4.50
2022-12-29T05:19:32.981Z,5.00
2022-12-29T05:29:40.727Z,5.50
2022-12-29T05:39:47.834Z,4.00
2022-12-29T05:49:54.920Z,3.80
2022-12-29T06:00:02.249Z,6.60
2022-12-29T06:10:09.888Z,5.30
2022-12-29T06:20:17.357Z,5.40
2022-12-29T06:30:24.643Z,4.40
2022-12-29T06:40:32.066Z,4.20
2022-12-29T06:50:38.394Z,5.80
2022-12-29T07:00:45.681Z,6.00
2022-12-29T07:10:53.188Z,6.20
2022-12-29T07:21:00.462Z,5.60
2022-12-29T07:31:08.450Z,4.00
2022-12-29T07:41:15.694Z,5.50
2022-12-29T07:51:22.815Z,6.60
2022-12-29T08:01:29.518Z,6.60
2022-12-29T08:11:37.964Z,5.70
2022-12-29T08:21:45.172Z,6.30
2022-12-29T08:31:52.333Z,5.70
2022-12-29T08:41:59.846Z,7.80
2022-12-29T08:52:07.860Z,5.40
2022-12-29T09:02:18.732Z,5.90
2022-12-29T09:12:34.463Z,5.90
2022-12-29T09:22:42.879Z,6.40
2022-12-29T09:32:54.946Z,6.00
2022-12-29T09:43:18.517Z,7.20
2022-12-29T09:53:27.645Z,6.30
2022-12-29T10:03:36.315Z,6.10
2022-12-29T10:13:43.442Z,6.00
2022-12-29T10:23:54.490Z,6.50
2022-12-29T10:34:08.079Z,6.90
2022-12-29T10:44:16.917Z,5.90
2022-12-29T10:54:25.037Z,7.10
2022-12-29T11:04:48.969Z,7.40
2022-12-29T11:15:20.923Z,7.50
2022-12-29T11:25:28.954Z,7.40
2022-12-29T11:35:34.672Z,7.50
2022-12-29T11:45:49.227Z,7.40
2022-12-29T11:55:55.221Z,7.30
2022-12-29T12:06:00.809Z,5.90
2022-12-29T12:16:11.050Z,6.40
2022-12-29T12:26:21.567Z,8.40
2022-12-29T12:36:56.190Z,8.40
2022-12-29T12:47:06.655Z,7.40
2022-12-29T12:57:13.819Z,8.30
2022-12-29T13:07:20.842Z,8.30
2022-12-29T13:17:26.840Z,8.50
2022-12-29T13:27:45.397Z,9.80
2022-12-29T13:37:56.688Z,8.10
2022-12-29T13:48:02.182Z,8.40
2022-12-29T13:58:14.235Z,9.70
2022-12-29T14:08:21.933Z,11.10
2022-12-29T14:18:31.281Z,9.30
2022-12-29T14:28:39.209Z,8.30
2022-12-29T14:38:49.050Z,10.10
2022-12-29T14:48:58.020Z,9.90
2022-12-29T14:59:05.955Z,12.20
2022-12-29T15:09:15.680Z,12.90
2022-12-29T15:19:25.379Z,9.00
2022-12-29T15:29:33.668Z,10.60
2022-12-29T15:39:39.768Z,10.70
2022-12-29T15:49:46.211Z,12.60
2022-12-29T15:59:55.186Z,11.80
2022-12-29T16:10:04.072Z,12.90
2022-12-29T16:20:21.434Z,11.40
2022-12-29T16:30:34.184Z,11.20
2022-12-29T16:40:42.824Z,14.20
2022-12-29T16:50:51.370Z,13.40
2022-12-29T17:01:00.350Z,17.00
2022-12-29T17:11:24.775Z,11.90
2022-12-29T17:21:32.191Z,12.00
2022-12-29T17:31:39.659Z,17.70
2022-12-29T17:41:48.833Z,17.80
2022-12-29T17:51:56.284Z,15.00
2022-12-29T18:02:03.909Z,13.70
2022-12-29T18:12:26.923Z,11.00
2022-12-29T18:22:34.735Z,15.70
2022-12-29T18:32:56.075Z,14.60
2022-12-29T18:43:04.096Z,16.00
2022-12-29T18:53:12.580Z,17.30
2022-12-29T19:03:21.461Z,13.30
2022-12-29T19:13:34.906Z,14.10
2022-12-29T19:23:41.759Z,16.50
2022-12-29T19:43:55.835Z,13.60
2022-12-29T19:54:03.204Z,14.00
2022-12-29T20:04:09.523Z,16.80
2022-12-29T20:14:17.248Z,16.50
2022-12-29T20:24:24.803Z,16.70
2022-12-29T20:34:32.251Z,14.10
2022-12-29T20:44:39.426Z,12.60
2022-12-29T20:54:46.518Z,14.80
2022-12-29T21:15:21.232Z,11.50
2022-12-29T21:25:29.443Z,10.40
2022-12-29T21:35:38.589Z,11.80
2022-12-29T21:45:49.493Z,14.30
2022-12-29T21:55:56.700Z,13.90
2022-12-29T22:06:21.540Z,14.60
2022-12-29T22:16:29.237Z,9.40
2022-12-29T22:26:36.100Z,9.40
2022-12-29T22:36:43.353Z,11.70
2022-12-29T22:46:50.484Z,13.50
2022-12-29T22:56:56.437Z,14.30
2022-12-29T23:07:03.873Z,9.90
2022-12-29T23:17:11.543Z,10.20
2022-12-29T23:27:18.815Z,12.10
2022-12-29T23:37:26.209Z,14.40
2022-12-29T23:47:33.558Z,13.40
2022-12-29T23:57:40.634Z,11.80
